Time;durP1;ratioP1;P1;durP2;ratioP2;P2;SDS_P1;SDS_P2;PMS_P1;PMS_P2;Temp;Humidity;BMP_temperature;BMP_pressure;BME280_temperature;BME280_humidity;BME280_pressure;Samples;Min_cycle;Max_cycle;Signal;HPM_P1;HPM_P2
2022/10/14 00:02:02;;;;;;;129.50;23.45;;;10.70;99.90;;;;;;4930769;29;20043;-75
2022/10/14 00:04:28;;;;;;;273.02;31.42;;;10.70;99.90;;;;;;4924113;29;20036;-74
2022/10/14 00:06:54;;;;;;;234.13;29.83;;;10.70;99.90;;;;;;4934071;29;20036;-73
2022/10/14 00:09:20;;;;;;;184.15;28.00;;;10.80;99.90;;;;;;4935378;29;20046;-75
2022/10/14 00:11:45;;;;;;;211.65;30.08;;;10.80;99.90;;;;;;4935165;29;20087;-75
2022/10/14 00:14:14;;;;;;;216.52;29.80;;;10.80;99.90;;;;;;4927222;29;20135;-75
2022/10/14 00:16:42;;;;;;;218.05;30.48;;;10.90;99.90;;;;;;4935285;29;20047;-74
2022/10/14 00:19:08;;;;;;;216.35;29.77;;;11.00;99.90;;;;;;4934233;29;20043;-75
2022/10/14 00:21:35;;;;;;;276.10;33.70;;;11.00;99.90;;;;;;4934349;29;20502;-75
2022/10/14 00:24:01;;;;;;;214.45;31.10;;;11.00;99.90;;;;;;4934312;29;20051;-76
2022/10/14 00:26:30;;;;;;;325.65;34.50;;;11.00;99.90;;;;;;4930375;29;20407;-76
2022/10/14 00:28:57;;;;;;;302.80;34.40;;;11.00;99.90;;;;;;4932364;29;20126;-75
2022/10/14 00:31:23;;;;;;;299.20;36.65;;;11.10;99.90;;;;;;4914370;29;20040;-75
2022/10/14 00:33:49;;;;;;;254.73;30.25;;;11.10;99.90;;;;;;4925949;29;20051;-76
2022/10/14 00:36:17;;;;;;;266.70;33.90;;;11.10;99.90;;;;;;4934993;29;20046;-75
2022/10/14 00:38:44;;;;;;;266.10;35.47;;;11.20;99.90;;;;;;4933022;29;20483;-75
2022/10/14 00:41:12;;;;;;;317.52;37.63;;;11.10;99.90;;;;;;4932833;29;20384;-76
2022/10/14 00:44:00;;;;;;;269.70;35.28;;;11.20;99.90;;;;;;4930579;29;20072;-75
2022/10/14 00:46:29;;;;;;;283.70;38.45;;;11.20;99.90;;;;;;4944063;29;20040;-76
2022/10/14 00:48:56;;;;;;;428.17;43.38;;;11.20;99.90;;;;;;4934610;29;20067;-75
2022/10/14 00:51:22;;;;;;;356.75;42.58;;;11.20;99.90;;;;;;4933968;29;20099;-75
2022/10/14 00:53:48;;;;;;;301.65;38.92;;;11.20;99.90;;;;;;4933562;29;20494;-75
2022/10/14 00:56:16;;;;;;;371.30;42.45;;;11.30;99.90;;;;;;4934335;29;20031;-75
2022/10/14 00:58:44;;;;;;;246.88;39.13;;;11.30;99.90;;;;;;4933470;29;20079;-75
2022/10/14 01:01:09;;;;;;;276.92;39.03;;;11.30;99.90;;;;;;4934322;29;20055;-75
2022/10/14 01:03:35;;;;;;;347.40;44.35;;;11.30;99.90;;;;;;4933183;29;20051;-75
2022/10/14 01:06:10;;;;;;;298.67;42.05;;;11.30;99.90;;;;;;4934109;29;20044;-75
2022/10/14 01:09:11;;;;;;;251.30;37.50;;;11.30;99.90;;;;;;4929747;29;20122;-75
2022/10/14 01:11:51;;;;;;;263.23;36.85;;;11.30;99.90;;;;;;4926329;29;20083;-75
2022/10/14 01:14:39;;;;;;;234.25;34.72;;;11.30;99.90;;;;;;4925835;29;20040;-75
2022/10/14 01:17:46;;;;;;;264.58;36.65;;;11.30;99.90;;;;;;4933537;29;20499;-75
2022/10/14 01:20:40;;;;;;;287.48;34.47;;;11.30;99.90;;;;;;4934049;29;20079;-75
2022/10/14 01:23:16;;;;;;;212.18;28.30;;;11.30;99.90;;;;;;4934133;29;20040;-75
2022/10/14 01:25:52;;;;;;;344.05;33.35;;;11.30;99.90;;;;;;4945991;29;20035;-74
2022/10/14 01:28:27;;;;;;;266.17;31.55;;;11.30;99.90;;;;;;4910556;29;20066;-76
2022/10/14 01:31:03;;;;;;;231.85;28.30;;;11.30;99.90;;;;;;4932594;29;20028;-76
2022/10/14 01:33:39;;;;;;;231.13;29.27;;;11.20;99.90;;;;;;4948697;29;20130;-75
2022/10/14 01:36:13;;;;;;;350.70;34.80;;;11.30;99.90;;;;;;4949707;29;20082;-75
2022/10/14 01:38:48;;;;;;;274.95;31.65;;;11.20;99.90;;;;;;4917798;29;20044;-75
2022/10/14 01:41:22;;;;;;;410.73;37.05;;;11.20;99.90;;;;;;4932469;29;20040;-76
2022/10/14 01:43:50;;;;;;;327.73;34.83;;;11.20;99.90;;;;;;4947253;29;20110;-76
2022/10/14 01:46:18;;;;;;;306.15;33.58;;;11.20;99.90;;;;;;4926085;29;20126;-75
2022/10/14 01:48:48;;;;;;;346.83;39.45;;;11.20;99.90;;;;;;4933495;29;20043;-75
2022/10/14 01:51:20;;;;;;;227.60;30.58;;;11.20;99.90;;;;;;4933579;29;20040;-76
2022/10/14 01:53:53;;;;;;;272.45;34.70;;;11.20;99.90;;;;;;4930705;29;20054;-75
2022/10/14 01:56:19;;;;;;;360.55;36.67;;;11.20;99.90;;;;;;4924862;29;20110;-75
2022/10/14 01:58:45;;;;;;;310.55;37.30;;;11.20;99.90;;;;;;4929483;29;20036;-75
2022/10/14 02:01:11;;;;;;;225.02;34.40;;;11.20;99.90;;;;;;4916582;29;20051;-75
2022/10/14 02:03:45;;;;;;;340.38;36.63;;;11.20;99.90;;;;;;4929852;29;20040;-75
2022/10/14 02:06:34;;;;;;;414.95;43.35;;;11.20;99.90;;;;;;4917371;29;20051;-76
2022/10/14 02:09:46;;;;;;;381.13;39.75;;;11.20;99.90;;;;;;4926475;29;20055;-75
2022/10/14 02:12:56;;;;;;;405.35;42.75;;;11.10;99.90;;;;;;4914310;29;20552;-75
2022/10/14 02:15:24;;;;;;;363.33;38.28;;;11.10;99.90;;;;;;4874645;29;20579;-75
2022/10/14 02:17:54;;;;;;;371.33;41.45;;;11.10;99.90;;;;;;4903446;29;20407;-75
2022/10/14 02:20:32;;;;;;;325.58;37.15;;;11.10;99.90;;;;;;4903369;29;20042;-75
2022/10/14 02:23:09;;;;;;;303.90;31.88;;;11.00;99.90;;;;;;4932779;29;20142;-74
2022/10/14 02:25:38;;;;;;;291.60;30.70;;;11.00;99.90;;;;;;4948795;29;20118;-75
2022/10/14 02:28:07;;;;;;;249.75;26.20;;;11.00;99.90;;;;;;4932910;29;20118;-76
2022/10/14 02:30:36;;;;;;;230.00;27.55;;;11.00;99.90;;;;;;4933269;29;20083;-75
2022/10/14 02:33:03;;;;;;;335.85;30.55;;;10.90;99.90;;;;;;4931650;29;20048;-74
2022/10/14 02:35:30;;;;;;;271.35;30.38;;;10.90;99.90;;;;;;4931617;29;20059;-76
2022/10/14 02:37:57;;;;;;;246.13;28.35;;;10.90;99.90;;;;;;4916864;29;20474;-75
2022/10/14 02:40:40;;;;;;;239.73;30.08;;;10.90;99.90;;;;;;4933105;29;20047;-75
2022/10/14 02:43:08;;;;;;;;;;;10.90;99.90;;;;;;4933421;29;20052;-76
2022/10/14 02:45:35;;;;;;;268.42;31.27;;;10.80;99.90;;;;;;4925923;29;19974;-75
2022/10/14 02:48:01;;;;;;;316.63;34.28;;;10.80;99.90;;;;;;4932532;29;20491;-76
2022/10/14 02:50:27;;;;;;;218.43;28.70;;;10.80;99.90;;;;;;4932166;29;20039;-76
2022/10/14 02:52:52;;;;;;;330.67;34.72;;;10.80;99.90;;;;;;4916945;29;20031;-75
2022/10/14 02:55:18;;;;;;;284.95;31.60;;;10.70;99.90;;;;;;4931487;29;20496;-75
2022/10/14 02:57:43;;;;;;;319.13;33.30;;;10.70;99.90;;;;;;4930378;29;20047;-75
2022/10/14 03:00:10;;;;;;;195.95;28.52;;;10.70;99.90;;;;;;4931186;29;20087;-75
2022/10/14 03:02:35;;;;;;;244.25;27.77;;;10.70;99.90;;;;;;4932588;29;20079;-76
2022/10/14 03:05:01;;;;;;;219.90;27.35;;;10.70;99.90;;;;;;4929143;29;20071;-75
2022/10/14 03:07:27;;;;;;;213.98;26.92;;;10.60;99.90;;;;;;4931791;29;20501;-75
2022/10/14 03:09:52;;;;;;;221.43;24.88;;;10.60;99.90;;;;;;4933092;29;20040;-75
2022/10/14 03:12:18;;;;;;;256.35;26.15;;;10.60;99.90;;;;;;4931940;29;20048;-74
2022/10/14 03:14:44;;;;;;;257.45;26.30;;;10.50;99.90;;;;;;4926667;29;20031;-75
2022/10/14 03:17:10;;;;;;;187.77;21.40;;;10.50;99.90;;;;;;4928396;29;20091;-75
2022/10/14 03:19:36;;;;;;;179.02;21.88;;;10.40;99.90;;;;;;4936403;29;20048;-75
2022/10/14 03:22:01;;;;;;;125.18;20.17;;;10.40;99.90;;;;;;4936223;29;20054;-75
2022/10/14 03:24:27;;;;;;;134.05;18.67;;;10.40;99.90;;;;;;4930027;29;20483;-74
2022/10/14 03:26:52;;;;;;;151.20;20.45;;;10.30;99.90;;;;;;4919327;29;20095;-75
2022/10/14 03:29:18;;;;;;;157.00;21.35;;;10.30;99.90;;;;;;4936100;29;20036;-75
2022/10/14 03:31:43;;;;;;;158.00;21.55;;;10.30;99.90;;;;;;4936097;29;20039;-75
2022/10/14 03:34:09;;;;;;;171.73;21.25;;;10.30;99.90;;;;;;4935122;29;20052;-76
2022/10/14 03:36:35;;;;;;;157.35;21.02;;;10.30;99.90;;;;;;4935214;29;20047;-75
2022/10/14 03:39:00;;;;;;;102.53;17.15;;;10.20;99.90;;;;;;4935911;29;20050;-75
2022/10/14 03:41:26;;;;;;;153.95;20.88;;;10.20;99.90;;;;;;4934685;29;20042;-75
2022/10/14 03:43:51;;;;;;;182.30;22.65;;;10.20;99.90;;;;;;4933333;29;20040;-75
2022/10/14 03:46:17;;;;;;;121.85;20.48;;;10.20;99.90;;;;;;4936032;29;20092;-75
2022/10/14 03:48:43;;;;;;;172.32;23.40;;;10.20;99.90;;;;;;4918981;29;20082;-75
2022/10/14 03:51:08;;;;;;;148.35;21.73;;;10.20;99.90;;;;;;4934829;29;20127;-75
2022/10/14 03:53:34;;;;;;;208.02;25.38;;;10.20;99.90;;;;;;4929453;29;20070;-75
2022/10/14 03:55:59;;;;;;;189.07;24.25;;;10.20;99.90;;;;;;4933826;29;20561;-75
2022/10/14 03:58:25;;;;;;;178.35;24.17;;;10.10;99.90;;;;;;4930278;29;20502;-75
2022/10/14 04:00:51;;;;;;;238.48;26.70;;;10.10;99.90;;;;;;4935562;29;20035;-75
2022/10/14 04:03:16;;;;;;;179.95;23.73;;;10.10;99.90;;;;;;4918784;29;20048;-75
2022/10/14 04:05:42;;;;;;;154.63;24.02;;;10.10;99.90;;;;;;4934862;29;20051;-75
2022/10/14 04:08:08;;;;;;;145.57;22.65;;;10.10;99.90;;;;;;4919289;29;20395;-75
2022/10/14 04:10:33;;;;;;;172.05;25.58;;;10.10;99.90;;;;;;4934715;29;20036;-75
2022/10/14 04:12:59;;;;;;;151.25;24.77;;;10.10;99.90;;;;;;4933246;29;20055;-75
2022/10/14 04:15:25;;;;;;;195.20;27.25;;;10.10;99.90;;;;;;4935097;29;20498;-75
2022/10/14 04:17:50;;;;;;;246.25;31.35;;;10.10;99.90;;;;;;4935037;29;20055;-74
2022/10/14 04:20:16;;;;;;;195.80;27.20;;;10.10;99.90;;;;;;4918281;29;20497;-74
2022/10/14 04:22:42;;;;;;;200.52;27.02;;;10.10;99.90;;;;;;4934257;29;20047;-75
2022/10/14 04:25:08;;;;;;;171.50;25.48;;;10.00;99.90;;;;;;4927828;29;20148;-75
2022/10/14 04:27:33;;;;;;;133.95;25.05;;;10.10;99.90;;;;;;4934397;29;20039;-75
2022/10/14 04:29:59;;;;;;;173.85;26.58;;;10.10;99.90;;;;;;4928854;29;20116;-75
2022/10/14 04:32:25;;;;;;;167.70;27.77;;;10.10;99.90;;;;;;4934940;29;20036;-76
2022/10/14 04:34:51;;;;;;;162.50;25.88;;;10.10;99.90;;;;;;4929651;29;20648;-76
2022/10/14 04:37:16;;;;;;;154.05;26.38;;;10.00;99.90;;;;;;4942826;29;20123;-76
2022/10/14 04:39:42;;;;;;;157.57;27.00;;;10.00;99.90;;;;;;4929972;29;20423;-75
2022/10/14 04:42:08;;;;;;;189.70;28.55;;;10.10;99.90;;;;;;4932513;29;20091;-76
2022/10/14 04:44:34;;;;;;;286.15;33.33;;;10.10;99.90;;;;;;4933458;29;20044;-75
2022/10/14 04:46:59;;;;;;;157.15;26.17;;;10.10;99.90;;;;;;4930807;29;20510;-75
2022/10/14 04:49:25;;;;;;;193.70;27.80;;;10.10;99.90;;;;;;4915399;29;20101;-76
2022/10/14 04:51:50;;;;;;;209.23;30.83;;;10.10;99.90;;;;;;4948876;29;20471;-75
2022/10/14 04:54:16;;;;;;;204.60;30.98;;;10.10;99.90;;;;;;4928892;29;20039;-75
2022/10/14 04:56:42;;;;;;;205.77;30.10;;;10.10;99.90;;;;;;4934470;29;20048;-75
2022/10/14 04:59:07;;;;;;;234.82;30.58;;;10.10;99.90;;;;;;4933400;29;20039;-75
2022/10/14 05:01:33;;;;;;;267.65;32.40;;;10.10;99.90;;;;;;4933729;29;20059;-75
2022/10/14 05:03:58;;;;;;;272.13;32.72;;;10.10;99.90;;;;;;4933042;29;20055;-76
2022/10/14 05:06:24;;;;;;;237.25;31.23;;;10.10;99.90;;;;;;4934490;29;20032;-76
2022/10/14 05:08:50;;;;;;;269.75;34.58;;;10.10;99.90;;;;;;4934235;29;20051;-76
2022/10/14 05:11:15;;;;;;;211.88;28.92;;;10.10;99.90;;;;;;4934491;29;20533;-75
2022/10/14 05:13:41;;;;;;;310.38;34.15;;;10.10;99.90;;;;;;4911837;29;20032;-75
2022/10/14 05:16:07;;;;;;;275.45;31.98;;;10.10;99.90;;;;;;4914491;29;20036;-75
2022/10/14 05:18:33;;;;;;;291.80;31.95;;;10.20;99.90;;;;;;4933934;29;20032;-75
2022/10/14 05:20:59;;;;;;;312.00;36.40;;;10.20;99.90;;;;;;4934152;29;20043;-75
2022/10/14 05:23:25;;;;;;;325.30;34.83;;;10.20;99.90;;;;;;4932207;29;20072;-75
2022/10/14 05:25:51;;;;;;;210.55;29.10;;;10.20;99.90;;;;;;4932661;29;20039;-75
2022/10/14 05:28:17;;;;;;;304.77;33.70;;;10.20;99.90;;;;;;4933667;29;20036;-75
2022/10/14 05:30:44;;;;;;;246.63;31.00;;;10.20;99.90;;;;;;4934255;29;20450;-75
2022/10/14 05:33:10;;;;;;;284.70;33.47;;;10.30;99.90;;;;;;4916378;29;20044;-75
2022/10/14 05:35:36;;;;;;;287.52;32.35;;;10.30;99.90;;;;;;4933943;29;20044;-75
2022/10/14 05:38:02;;;;;;;282.65;33.40;;;10.30;99.90;;;;;;4932848;29;20126;-75
2022/10/14 05:40:28;;;;;;;296.52;33.13;;;10.30;99.90;;;;;;4932520;29;20484;-75
2022/10/14 05:42:53;;;;;;;280.25;32.17;;;10.30;99.90;;;;;;4917006;29;20082;-75
2022/10/14 05:45:19;;;;;;;268.20;33.13;;;10.30;99.90;;;;;;4916377;29;20028;-75
2022/10/14 05:47:45;;;;;;;285.95;34.03;;;10.30;99.90;;;;;;4933024;29;20102;-75
2022/10/14 05:50:11;;;;;;;272.05;32.92;;;10.30;99.90;;;;;;4933509;29;20083;-75
2022/10/14 05:52:39;;;;;;;294.83;34.10;;;10.30;99.90;;;;;;4912997;29;20043;-75
2022/10/14 05:55:05;;;;;;;301.35;33.63;;;10.40;99.90;;;;;;4916134;29;20040;-75
2022/10/14 05:57:32;;;;;;;317.65;34.53;;;10.30;99.90;;;;;;4926729;29;20040;-75
2022/10/14 05:59:58;;;;;;;246.43;34.65;;;10.40;99.90;;;;;;4930697;29;20127;-75
2022/10/14 06:02:24;;;;;;;305.23;34.67;;;10.40;99.90;;;;;;4932523;29;20427;-75
2022/10/14 06:04:50;;;;;;;272.05;33.58;;;10.40;99.90;;;;;;4932202;29;20171;-75
2022/10/14 06:07:15;;;;;;;244.65;31.45;;;10.40;99.90;;;;;;4929858;29;20474;-73
2022/10/14 06:09:41;;;;;;;280.95;32.63;;;10.40;99.90;;;;;;4930906;29;20032;-75
2022/10/14 06:12:07;;;;;;;326.00;36.08;;;10.40;99.90;;;;;;4926102;29;20039;-76
2022/10/14 06:14:33;;;;;;;265.63;33.65;;;10.50;99.90;;;;;;4916506;29;20495;-74
2022/10/14 06:16:58;;;;;;;295.45;33.88;;;10.50;99.90;;;;;;4931515;29;20166;-75
2022/10/14 06:19:24;;;;;;;268.38;33.47;;;10.50;99.90;;;;;;4929460;29;20400;-75
2022/10/14 06:21:50;;;;;;;242.02;31.40;;;10.50;99.90;;;;;;4927678;29;20048;-75
2022/10/14 06:24:15;;;;;;;259.23;34.83;;;10.50;99.90;;;;;;4926171;29;20039;-75
2022/10/14 06:26:41;;;;;;;300.98;35.53;;;10.50;99.90;;;;;;4932025;29;20067;-75
2022/10/14 06:29:06;;;;;;;219.13;33.25;;;10.60;99.90;;;;;;4929898;29;20035;-76
2022/10/14 06:31:32;;;;;;;209.27;30.92;;;10.60;99.90;;;;;;4931672;29;20154;-74
2022/10/14 06:33:58;;;;;;;179.07;29.27;;;10.60;99.90;;;;;;4913129;29;20498;-74
2022/10/14 06:36:23;;;;;;;233.15;32.33;;;10.60;99.90;;;;;;4932544;29;20410;-74
2022/10/14 06:38:49;;;;;;;211.70;30.02;;;10.70;99.90;;;;;;4924361;29;20473;-74
2022/10/14 06:41:14;;;;;;;206.40;32.20;;;10.70;99.90;;;;;;4932667;29;20035;-75
2022/10/14 06:43:40;;;;;;;160.45;28.63;;;10.70;99.90;;;;;;4933149;29;20498;-74
2022/10/14 06:46:06;;;;;;;143.55;26.77;;;10.70;99.90;;;;;;4932981;29;20491;-74
2022/10/14 06:48:32;;;;;;;183.70;30.15;;;10.80;99.90;;;;;;4932819;29;20050;-74
2022/10/14 06:50:59;;;;;;;145.40;29.48;;;10.80;99.90;;;;;;4934032;29;20040;-74
2022/10/14 06:53:25;;;;;;;131.30;27.13;;;10.80;99.90;;;;;;4934513;29;20430;-74
2022/10/14 06:55:57;;;;;;;165.07;30.40;;;10.80;99.90;;;;;;4936743;29;20126;-74
2022/10/14 06:58:23;;;;;;;136.65;28.67;;;10.80;99.90;;;;;;4935219;29;20039;-74
2022/10/14 07:00:48;;;;;;;138.88;26.67;;;10.90;99.90;;;;;;4936745;29;20122;-74
2022/10/14 07:03:14;;;;;;;178.30;29.80;;;10.90;99.90;;;;;;4927337;29;20553;-75
2022/10/14 07:05:40;;;;;;;110.03;29.90;;;10.90;99.90;;;;;;4935260;29;20376;-76
2022/10/14 07:08:05;;;;;;;149.95;29.42;;;10.90;99.90;;;;;;4933989;29;20035;-75
2022/10/14 07:10:31;;;;;;;121.80;27.95;;;11.00;99.90;;;;;;4934987;29;20411;-74
2022/10/14 07:12:56;;;;;;;119.63;28.17;;;10.90;99.90;;;;;;4934753;29;20036;-76
2022/10/14 07:15:22;;;;;;;164.85;28.35;;;11.00;99.90;;;;;;4933272;29;20557;-77
2022/10/14 07:17:47;;;;;;;150.80;31.58;;;11.00;99.90;;;;;;4935711;29;20031;-77
2022/10/14 07:20:13;;;;;;;142.68;30.40;;;11.00;99.90;;;;;;4935007;29;20039;-77
2022/10/14 07:22:39;;;;;;;163.80;31.25;;;11.00;99.90;;;;;;4934081;29;20119;-76
2022/10/14 07:25:06;;;;;;;127.53;28.00;;;11.00;99.90;;;;;;4933667;29;20048;-79
2022/10/14 07:27:31;;;;;;;153.80;30.00;;;11.10;99.90;;;;;;4922918;29;20036;-80
2022/10/14 07:29:57;;;;;;;131.13;30.35;;;11.10;99.90;;;;;;4957789;29;20054;-80
2022/10/14 07:32:23;;;;;;;180.10;33.17;;;11.10;99.90;;;;;;4934000;29;20055;-79
2022/10/14 07:34:50;;;;;;;181.50;31.98;;;11.10;99.90;;;;;;4926011;29;20039;-79
2022/10/14 07:37:15;;;;;;;137.55;30.60;;;11.10;99.90;;;;;;4936318;29;20414;-78
2022/10/14 07:39:41;;;;;;;164.38;31.67;;;11.20;99.90;;;;;;4915332;29;20090;-78
2022/10/14 07:42:06;;;;;;;220.30;35.42;;;11.10;99.90;;;;;;4932602;29;20070;-78
2022/10/14 07:44:32;;;;;;;177.80;32.55;;;11.20;99.90;;;;;;4935265;29;20054;-78
2022/10/14 07:46:59;;;;;;;167.10;32.90;;;11.20;99.90;;;;;;4933594;29;20407;-78
2022/10/14 07:49:25;;;;;;;165.50;31.73;;;11.30;99.90;;;;;;4919989;29;20099;-78
2022/10/14 07:51:50;;;;;;;188.32;35.83;;;11.30;99.90;;;;;;4919332;29;20514;-78
2022/10/14 07:54:22;;;;;;;147.18;33.83;;;11.40;99.90;;;;;;4934349;29;20036;-78
2022/10/14 07:56:48;;;;;;;158.57;34.03;;;11.30;99.90;;;;;;4916730;29;20070;-76
2022/10/14 07:59:15;;;;;;;143.20;32.85;;;11.30;99.90;;;;;;4935592;29;20039;-78
2022/10/14 08:01:41;;;;;;;195.25;34.13;;;11.40;99.90;;;;;;4933681;29;20075;-78
2022/10/14 08:04:09;;;;;;;151.75;34.33;;;11.40;99.90;;;;;;4935685;29;20490;-78
2022/10/14 08:06:34;;;;;;;187.95;34.53;;;11.40;99.90;;;;;;4916192;29;20075;-78
2022/10/14 08:09:02;;;;;;;155.55;36.25;;;11.40;99.90;;;;;;4927658;29;20043;-77
2022/10/14 08:11:28;;;;;;;181.13;35.83;;;11.50;99.90;;;;;;4916634;29;20427;-77
2022/10/14 08:13:54;;;;;;;227.52;36.15;;;11.50;99.90;;;;;;4932548;29;20052;-78
2022/10/14 08:16:25;;;;;;;143.57;33.08;;;11.50;99.90;;;;;;4916402;29;20419;-78
2022/10/14 08:18:53;;;;;;;191.20;36.22;;;11.50;99.90;;;;;;4935056;29;20039;-77
2022/10/14 08:21:20;;;;;;;180.43;36.58;;;11.50;99.90;;;;;;4935471;29;20058;-77
2022/10/14 08:23:46;;;;;;;209.90;35.30;;;11.50;99.90;;;;;;4951252;29;20427;-78
2022/10/14 08:26:21;;;;;;;234.73;37.60;;;11.50;99.90;;;;;;4919520;29;20040;-77
2022/10/14 08:28:48;;;;;;;134.95;36.80;;;11.60;99.90;;;;;;4919216;29;20046;-78
2022/10/14 08:31:14;;;;;;;227.23;36.08;;;11.60;99.90;;;;;;4934468;29;20035;-78
2022/10/14 08:33:40;;;;;;;178.18;36.33;;;11.60;99.90;;;;;;4919175;29;20559;-78
2022/10/14 08:36:06;;;;;;;222.57;38.72;;;11.60;99.90;;;;;;4935148;29;20130;-78
2022/10/14 08:38:31;;;;;;;212.30;36.45;;;11.60;99.90;;;;;;4918425;29;20360;-77
2022/10/14 08:41:11;;;;;;;208.98;36.45;;;11.70;99.90;;;;;;4933829;29;20049;-77
2022/10/14 08:43:40;;;;;;;172.77;35.47;;;11.70;99.90;;;;;;4934084;29;20040;-77
2022/10/14 08:46:25;;;;;;;198.52;35.25;;;11.70;99.90;;;;;;4951163;29;20559;-76
2022/10/14 08:49:01;;;;;;;163.43;37.05;;;11.70;99.90;;;;;;4933492;29;20046;-76
2022/10/14 08:51:29;;;;;;;261.70;38.78;;;11.70;99.90;;;;;;4934673;29;20194;-77
2022/10/14 08:54:05;;;;;;;229.40;37.22;;;11.80;99.90;;;;;;4934783;29;20075;-77
2022/10/14 08:56:33;;;;;;;195.82;36.92;;;11.80;99.90;;;;;;4919215;29;20075;-76
2022/10/14 08:59:05;;;;;;;202.90;35.33;;;11.90;99.90;;;;;;4934439;29;20059;-76
2022/10/14 09:01:33;;;;;;;201.77;37.80;;;11.90;99.90;;;;;;4933465;29;20051;-76
2022/10/14 09:04:03;;;;;;;185.43;34.78;;;11.90;99.90;;;;;;4928082;29;20082;-76
2022/10/14 09:06:31;;;;;;;255.93;36.20;;;11.90;99.90;;;;;;4949716;28;20087;-76
2022/10/14 09:09:08;;;;;;;201.48;36.45;;;11.90;99.90;;;;;;4917445;29;20035;-76
2022/10/14 09:11:40;;;;;;;171.20;32.90;;;11.90;99.90;;;;;;4917893;29;20039;-75
2022/10/14 09:14:08;;;;;;;189.88;35.45;;;12.00;99.90;;;;;;4934104;29;20499;-76
2022/10/14 09:16:37;;;;;;;298.25;38.08;;;12.00;99.90;;;;;;4949940;28;20039;-76
2022/10/14 09:19:10;;;;;;;286.15;37.00;;;12.00;99.90;;;;;;4918594;29;20043;-76
2022/10/14 09:21:47;;;;;;;201.32;33.97;;;12.00;99.90;;;;;;4918369;29;20059;-76
2022/10/14 09:24:34;;;;;;;185.18;31.33;;;12.00;99.90;;;;;;4917807;29;20479;-76
2022/10/14 09:27:13;;;;;;;217.32;31.67;;;12.00;99.90;;;;;;4918171;29;20035;-76
2022/10/14 09:29:46;;;;;;;199.35;30.40;;;12.00;99.90;;;;;;4917706;29;20047;-76
2022/10/14 09:32:16;;;;;;;138.30;29.27;;;12.00;99.90;;;;;;4918067;29;20078;-76
2022/10/14 09:34:48;;;;;;;174.35;29.83;;;12.00;99.90;;;;;;4934068;29;20039;-76
2022/10/14 09:37:28;;;;;;;136.13;27.55;;;12.10;99.90;;;;;;4934092;29;20403;-76
2022/10/14 09:40:01;;;;;;;126.10;27.83;;;12.10;99.90;;;;;;4929992;29;20043;-76
2022/10/14 09:42:39;;;;;;;;;;;12.10;99.90;;;;;;4911899;29;20095;-76
2022/10/14 09:45:12;;;;;;;145.45;27.75;;;12.10;99.90;;;;;;4933835;29;19929;-76
2022/10/14 09:47:50;;;;;;;112.20;25.90;;;12.10;99.90;;;;;;4933699;29;20050;-76
2022/10/14 09:50:53;;;;;;;92.03;24.95;;;12.10;99.90;;;;;;4933040;29;20035;-76
2022/10/14 09:53:44;;;;;;;111.85;26.27;;;12.10;99.90;;;;;;4902910;29;20146;-76
2022/10/14 09:56:10;;;;;;;189.70;30.00;;;12.10;99.90;;;;;;4930714;29;20040;-76
2022/10/14 09:58:52;;;;;;;154.48;28.92;;;12.10;99.90;;;;;;4930573;29;20111;-76
2022/10/14 10:01:23;;;;;;;106.03;25.08;;;12.20;99.90;;;;;;4930702;29;20115;-76
2022/10/14 10:03:51;;;;;;;93.00;24.75;;;12.20;99.90;;;;;;4931116;29;20044;-76
2022/10/14 10:06:20;;;;;;;189.73;28.45;;;12.30;99.90;;;;;;4949505;29;20031;-77
2022/10/14 10:09:04;;;;;;;121.70;26.38;;;12.30;99.90;;;;;;4917391;29;20032;-76
2022/10/14 10:11:32;;;;;;;121.70;25.17;;;12.30;99.90;;;;;;4933484;29;20042;-76
2022/10/14 10:14:28;;;;;;;177.18;27.23;;;12.30;99.90;;;;;;4916594;29;20047;-76
2022/10/14 10:17:06;;;;;;;191.80;28.80;;;12.30;99.90;;;;;;4930173;29;20035;-76
2022/10/14 10:19:37;;;;;;;209.73;30.05;;;12.40;99.90;;;;;;4933461;29;20062;-76
2022/10/14 10:22:21;;;;;;;169.68;28.42;;;12.40;99.90;;;;;;4933206;29;20054;-75
2022/10/14 10:24:49;;;;;;;161.15;29.35;;;12.50;99.90;;;;;;4932717;29;20415;-76
2022/10/14 10:27:36;;;;;;;153.20;29.38;;;12.50;99.90;;;;;;4932278;29;20630;-77
2022/10/14 10:30:19;;;;;;;252.45;33.97;;;12.40;99.90;;;;;;4933486;29;20570;-76
2022/10/14 10:33:06;;;;;;;160.20;34.22;;;12.60;99.90;;;;;;4933374;29;20530;-76
2022/10/14 10:35:44;;;;;;;221.52;34.03;;;12.50;99.90;;;;;;4933463;29;20071;-76
2022/10/14 10:38:30;;;;;;;257.48;36.83;;;12.60;99.90;;;;;;4933015;29;20528;-77
2022/10/14 10:41:30;;;;;;;199.93;33.63;;;12.70;99.90;;;;;;4948627;29;20048;-76
2022/10/14 10:44:02;;;;;;;225.15;39.75;;;12.80;99.90;;;;;;4930814;29;20044;-77
2022/10/14 10:46:54;;;;;;;230.13;39.03;;;12.80;99.90;;;;;;4933322;29;20054;-76
2022/10/14 10:49:29;;;;;;;277.10;38.03;;;12.90;99.90;;;;;;4933152;29;20570;-76
2022/10/14 10:52:16;;;;;;;210.90;36.28;;;13.00;99.90;;;;;;4932561;29;20091;-76
2022/10/14 10:54:47;;;;;;;229.20;35.67;;;13.10;99.90;;;;;;4933110;29;20040;-76
2022/10/14 10:57:34;;;;;;;198.23;39.03;;;13.20;99.90;;;;;;4917250;29;20047;-76
2022/10/14 11:00:02;;;;;;;251.30;39.65;;;13.30;99.90;;;;;;4931859;29;20506;-76
2022/10/14 11:02:43;;;;;;;272.77;42.38;;;13.40;99.90;;;;;;4917305;29;20171;-76
2022/10/14 11:05:53;;;;;;;234.60;36.60;;;13.40;99.90;;;;;;4932982;29;20122;-76
2022/10/14 11:12:06;;;;;;;218.27;33.95;;;13.50;99.90;;;;;;4932901;29;20054;-76
2022/10/14 11:15:04;;;;;;;116.90;29.42;;;13.50;99.90;;;;;;4932095;29;20140;-76
2022/10/14 11:17:39;;;;;;;219.75;32.22;;;13.50;99.90;;;;;;4916141;29;20048;-76
2022/10/14 11:20:16;;;;;;;142.73;28.10;;;13.60;99.90;;;;;;4916198;29;20047;-76
2022/10/14 11:23:04;;;;;;;155.15;28.20;;;13.60;99.90;;;;;;4930652;29;20546;-76
2022/10/14 11:25:32;;;;;;;104.07;27.80;;;13.60;99.90;;;;;;4947102;28;20054;-76
2022/10/14 11:28:09;;;;;;;129.38;27.45;;;13.60;99.90;;;;;;4931564;29;20048;-76
2022/10/14 11:30:53;;;;;;;124.72;26.58;;;13.60;99.90;;;;;;4931890;29;20036;-76
2022/10/14 11:33:31;;;;;;;163.52;27.80;;;13.60;99.90;;;;;;4931801;29;20075;-76
2022/10/14 11:36:15;;;;;;;96.03;23.45;;;13.60;99.90;;;;;;4931008;29;20036;-76
2022/10/14 11:38:57;;;;;;;82.82;23.08;;;13.70;99.90;;;;;;4934677;29;20031;-76
2022/10/14 11:41:32;;;;;;;131.68;24.42;;;13.70;99.90;;;;;;4934135;29;20044;-76
2022/10/14 11:44:18;;;;;;;81.25;22.25;;;13.70;99.90;;;;;;4950739;29;20048;-76
2022/10/14 11:46:52;;;;;;;74.13;21.52;;;13.80;99.90;;;;;;4934852;29;20135;-76
2022/10/14 11:49:26;;;;;;;83.65;21.45;;;13.80;99.90;;;;;;4934796;29;20039;-76
2022/10/14 11:51:54;;;;;;;72.40;19.42;;;13.90;99.90;;;;;;4933822;29;20094;-77
2022/10/14 11:54:33;;;;;;;58.45;18.63;;;13.90;99.90;;;;;;4916273;29;20055;-76
2022/10/14 11:57:22;;;;;;;45.55;18.05;;;14.00;99.90;;;;;;4916924;29;20512;-75
2022/10/14 12:00:12;;;;;;;30.42;15.85;;;14.10;99.90;;;;;;4915834;29;20052;-77
2022/10/14 12:02:43;;;;;;;38.33;15.68;;;14.20;99.90;;;;;;4929869;29;20082;-76
2022/10/14 12:05:12;;;;;;;30.88;15.50;;;14.30;99.90;;;;;;4934495;29;20103;-76
2022/10/14 12:08:01;;;;;;;36.88;15.27;;;14.30;99.90;;;;;;4918511;29;20039;-76
2022/10/14 12:10:43;;;;;;;39.53;15.73;;;14.40;99.90;;;;;;4934791;29;20395;-76
2022/10/14 12:13:17;;;;;;;39.08;15.00;;;14.40;99.90;;;;;;4899573;29;1051955;-76
2022/10/14 12:15:48;;;;;;;31.73;13.57;;;14.40;99.90;;;;;;4934882;29;20091;-76
2022/10/14 12:18:13;;;;;;;24.95;13.07;;;14.50;99.90;;;;;;4935267;29;20039;-76
2022/10/14 12:20:43;;;;;;;38.72;13.55;;;14.50;99.90;;;;;;4935436;29;20562;-76
2022/10/14 12:23:16;;;;;;;25.15;13.48;;;14.50;99.90;;;;;;4935496;29;20399;-77
2022/10/14 12:25:55;;;;;;;24.73;12.27;;;14.60;99.90;;;;;;4919874;29;20044;-76
2022/10/14 12:28:21;;;;;;;64.18;14.93;;;14.60;99.90;;;;;;4933382;29;20111;-77
2022/10/14 12:30:46;;;;;;;25.48;13.35;;;14.60;99.90;;;;;;4951178;29;20035;-76
2022/10/14 12:33:16;;;;;;;24.45;13.43;;;14.70;99.90;;;;;;4929515;29;20438;-76
2022/10/14 12:36:00;;;;;;;20.80;11.70;;;14.70;99.90;;;;;;4923413;29;20040;-75
2022/10/14 12:38:30;;;;;;;18.67;12.38;;;14.70;99.90;;;;;;4927997;29;20043;-75
2022/10/14 12:41:38;;;;;;;18.85;12.30;;;14.60;99.90;;;;;;4919235;29;20051;-75